createdAt,value
2022-09-11T00:03:56.367Z,16.80
2022-09-11T00:08:05.406Z,16.80
2022-09-11T00:12:14.071Z,16.80
2022-09-11T00:16:26.976Z,16.80
2022-09-11T00:20:37.012Z,16.70
2022-09-11T00:24:45.591Z,16.60
2022-09-11T00:28:55.402Z,16.40
2022-09-11T00:33:05.203Z,16.40
2022-09-11T00:37:14.000Z,16.30
2022-09-11T00:41:25.911Z,16.20
2022-09-11T00:45:35.602Z,16.10
2022-09-11T00:49:51.103Z,16.10
2022-09-11T00:54:00.533Z,16.20
2022-09-11T00:58:12.168Z,16.20
2022-09-11T01:02:27.255Z,16.20
2022-09-11T01:06:34.611Z,16.10
2022-09-11T01:10:48.872Z,16.10
2022-09-11T01:15:06.652Z,16.10
2022-09-11T01:19:34.839Z,16.10
2022-09-11T01:24:03.094Z,16.10
2022-09-11T01:28:14.792Z,16.00
2022-09-11T01:32:26.700Z,16.00
2022-09-11T01:36:38.625Z,16.00
2022-09-11T01:40:53.531Z,15.90
2022-09-11T01:45:04.671Z,16.00
2022-09-11T01:49:37.073Z,16.00
2022-09-11T01:53:50.383Z,16.00
2022-09-11T01:58:19.957Z,16.00
2022-09-11T02:02:52.608Z,16.00
2022-09-11T02:07:05.126Z,16.00
2022-09-11T02:11:16.130Z,16.00
2022-09-11T02:15:27.768Z,16.00
2022-09-11T02:19:36.629Z,16.00
2022-09-11T02:23:45.580Z,16.00
2022-09-11T02:27:54.616Z,16.00
2022-09-11T02:32:03.880Z,15.90
2022-09-11T02:36:38.499Z,16.00
2022-09-11T02:40:56.446Z,15.90
2022-09-11T02:45:16.893Z,15.90
2022-09-11T02:49:28.654Z,15.90
2022-09-11T02:53:49.079Z,15.90
2022-09-11T02:58:01.003Z,15.90
2022-09-11T03:02:39.907Z,15.90
2022-09-11T03:06:50.071Z,15.80
2022-09-11T03:10:58.903Z,15.80
2022-09-11T03:15:09.604Z,15.80
2022-09-11T03:19:18.189Z,15.80
2022-09-11T03:23:26.940Z,15.90
2022-09-11T03:27:35.593Z,15.90
2022-09-11T03:31:44.184Z,15.90
2022-09-11T03:35:52.828Z,15.90
2022-09-11T03:40:01.635Z,15.80
2022-09-11T03:44:12.419Z,15.70
2022-09-11T03:48:21.643Z,15.70
2022-09-11T03:52:30.413Z,15.60
2022-09-11T03:56:39.043Z,15.60
2022-09-11T04:01:12.199Z,15.50
2022-09-11T04:05:22.719Z,15.50
2022-09-11T04:09:31.755Z,15.50
2022-09-11T04:13:43.822Z,15.50
2022-09-11T04:17:52.692Z,15.50
2022-09-11T04:22:01.421Z,15.50
2022-09-11T04:26:21.657Z,15.60
2022-09-11T04:30:30.263Z,15.60
2022-09-11T04:34:38.994Z,15.60
2022-09-11T04:38:48.693Z,15.70
2022-09-11T04:42:57.378Z,15.60
2022-09-11T04:47:06.211Z,15.60
2022-09-11T04:51:23.910Z,15.60
2022-09-11T04:55:32.584Z,15.70
2022-09-11T04:59:41.211Z,15.70
2022-09-11T05:03:49.737Z,15.60
2022-09-11T05:07:58.366Z,15.60
2022-09-11T05:12:07.227Z,15.60
2022-09-11T05:16:18.130Z,15.60
2022-09-11T05:20:26.682Z,15.60
2022-09-11T05:24:35.731Z,15.60
2022-09-11T05:28:44.823Z,15.60
2022-09-11T05:32:56.636Z,15.60
2022-09-11T05:37:05.426Z,15.70
2022-09-11T05:41:15.167Z,15.70
2022-09-11T05:45:24.929Z,15.70
2022-09-11T05:49:33.871Z,15.70
2022-09-11T05:53:43.340Z,15.70
2022-09-11T05:57:54.814Z,15.70
2022-09-11T06:02:03.477Z,15.70
2022-09-11T06:06:13.762Z,15.60
2022-09-11T06:10:23.056Z,15.70
2022-09-11T06:14:32.046Z,15.70
2022-09-11T06:18:40.874Z,15.70
2022-09-11T06:22:50.011Z,15.70
2022-09-11T06:26:58.595Z,15.60
2022-09-11T06:31:09.764Z,15.70
2022-09-11T06:35:37.768Z,15.80
2022-09-11T06:39:46.369Z,15.90
2022-09-11T06:43:55.127Z,15.90
2022-09-11T06:48:05.303Z,16.00
2022-09-11T06:52:35.325Z,16.10
2022-09-11T06:56:45.283Z,16.10
2022-09-11T07:00:54.013Z,16.00
2022-09-11T07:05:02.745Z,16.00
2022-09-11T07:09:12.189Z,16.00
2022-09-11T07:13:20.788Z,15.90
2022-09-11T07:17:29.366Z,16.00
2022-09-11T07:21:38.492Z,16.10
2022-09-11T07:25:48.438Z,16.10
2022-09-11T07:29:57.078Z,16.20
2022-09-11T07:34:06.356Z,16.20
2022-09-11T07:38:15.053Z,16.20
2022-09-11T07:42:23.616Z,16.20
2022-09-11T07:46:33.027Z,16.20
2022-09-11T07:50:41.656Z,16.30
2022-09-11T07:54:51.312Z,16.30
2022-09-11T07:59:01.580Z,16.10
2022-09-11T08:03:10.053Z,16.10
2022-09-11T08:07:38.437Z,16.20
2022-09-11T08:11:48.888Z,16.20
2022-09-11T08:15:57.493Z,16.30
2022-09-11T08:20:06.669Z,16.20
2022-09-11T08:24:17.078Z,16.10
2022-09-11T08:28:25.837Z,16.10
2022-09-11T08:32:53.747Z,16.00
2022-09-11T08:37:03.062Z,16.10
2022-09-11T08:41:15.174Z,16.10
2022-09-11T08:45:27.972Z,16.10
2022-09-11T08:49:48.450Z,16.20
2022-09-11T08:53:57.340Z,16.10
2022-09-11T08:58:25.733Z,16.10
2022-09-11T09:02:52.590Z,16.10
2022-09-11T09:07:09.909Z,16.10
2022-09-11T09:11:37.188Z,16.20
2022-09-11T09:16:18.955Z,16.20
2022-09-11T09:20:36.564Z,16.30
2022-09-11T09:24:50.679Z,16.40
2022-09-11T09:29:01.690Z,16.50
2022-09-11T09:33:26.074Z,16.50
2022-09-11T09:37:35.529Z,16.50
2022-09-11T09:42:02.402Z,16.50
2022-09-11T09:46:17.903Z,16.60
2022-09-11T09:50:32.132Z,16.70
2022-09-11T09:54:41.027Z,16.80
2022-09-11T09:59:04.701Z,16.90
2022-09-11T10:03:22.190Z,17.10
2022-09-11T10:07:32.551Z,17.20
2022-09-11T10:11:41.179Z,17.20
2022-09-11T10:15:50.873Z,17.30
2022-09-11T10:20:22.150Z,17.40
2022-09-11T10:24:33.345Z,17.50
2022-09-11T10:28:42.172Z,17.40
2022-09-11T10:32:50.948Z,17.50
2022-09-11T10:37:05.255Z,17.50
2022-09-11T10:41:18.650Z,17.50
2022-09-11T10:45:27.697Z,17.50
2022-09-11T10:49:36.422Z,17.60
2022-09-11T10:53:48.038Z,17.70
2022-09-11T10:57:59.721Z,17.80
2022-09-11T11:02:33.117Z,17.90
2022-09-11T11:06:56.639Z,17.90
2022-09-11T11:11:26.086Z,18.00
2022-09-11T11:15:56.215Z,18.10
2022-09-11T11:20:24.301Z,18.10
2022-09-11T11:24:57.341Z,18.20
2022-09-11T11:29:21.741Z,18.30
2022-09-11T11:33:51.363Z,18.40
2022-09-11T11:38:11.971Z,18.40
2022-09-11T11:42:32.376Z,18.40
2022-09-11T11:46:44.080Z,18.30
2022-09-11T11:50:55.470Z,18.30
2022-09-11T11:55:23.761Z,18.30
2022-09-11T11:59:47.145Z,18.40
2022-09-11T12:04:01.514Z,18.50
2022-09-11T12:08:17.296Z,18.50
2022-09-11T12:12:29.303Z,18.50
2022-09-11T12:16:39.028Z,18.40
2022-09-11T12:20:47.687Z,18.50
2022-09-11T12:25:00.935Z,18.80
2022-09-11T12:29:33.314Z,18.80
2022-09-11T12:33:47.878Z,18.90
2022-09-11T12:38:03.031Z,18.90
2022-09-11T12:42:26.948Z,19.10
2022-09-11T12:46:38.937Z,19.20
2022-09-11T12:50:54.161Z,19.30
2022-09-11T12:55:12.801Z,19.30
2022-09-11T12:59:27.833Z,19.50
2022-09-11T13:03:38.213Z,19.80
2022-09-11T13:07:50.976Z,19.90
2022-09-11T13:12:20.641Z,20.00
2022-09-11T13:16:37.118Z,20.00
2022-09-11T13:20:48.811Z,19.90
2022-09-11T13:25:09.421Z,20.00
2022-09-11T13:29:18.811Z,20.00
2022-09-11T13:33:29.302Z,19.90
2022-09-11T13:37:41.041Z,20.10
2022-09-11T13:41:51.812Z,20.30
2022-09-11T13:46:21.707Z,20.50
2022-09-11T13:50:30.583Z,20.60
2022-09-11T13:54:48.120Z,20.70
2022-09-11T13:58:58.282Z,20.70
2022-09-11T14:03:19.430Z,20.80
2022-09-11T14:07:28.635Z,20.90
2022-09-11T14:11:58.145Z,20.90
2022-09-11T14:16:15.295Z,21.00
2022-09-11T14:20:44.733Z,21.10
2022-09-11T14:24:58.910Z,21.20
2022-09-11T14:29:24.733Z,21.20
2022-09-11T14:33:33.492Z,21.20
2022-09-11T14:37:45.751Z,21.20
2022-09-11T14:41:55.773Z,21.20
2022-09-11T14:46:05.108Z,21.20
2022-09-11T14:50:14.047Z,21.20
2022-09-11T14:54:23.133Z,21.30
2022-09-11T14:58:32.375Z,21.30
2022-09-11T15:02:44.061Z,21.40
2022-09-11T15:06:55.565Z,21.30
2022-09-11T15:11:04.107Z,21.30
2022-09-11T15:15:12.829Z,21.30
2022-09-11T15:19:21.458Z,21.20
2022-09-11T15:23:29.927Z,21.20
2022-09-11T15:27:39.411Z,21.00
2022-09-11T15:31:48.903Z,21.00
2022-09-11T15:36:02.427Z,20.90
2022-09-11T15:40:30.512Z,20.90
2022-09-11T15:44:39.035Z,20.90
2022-09-11T15:48:48.864Z,20.90
2022-09-11T15:52:58.240Z,20.90
2022-09-11T15:57:08.198Z,20.90
2022-09-11T16:01:22.466Z,20.90
2022-09-11T16:05:51.264Z,20.90
2022-09-11T16:10:00.813Z,20.90
2022-09-11T16:14:11.592Z,20.80
2022-09-11T16:18:20.222Z,20.70
2022-09-11T16:22:30.438Z,20.70
2022-09-11T16:26:39.790Z,20.70
2022-09-11T16:30:51.406Z,20.70
2022-09-11T16:35:00.144Z,20.60
2022-09-11T16:39:12.172Z,20.50
2022-09-11T16:43:21.579Z,20.50
2022-09-11T16:47:30.481Z,20.50
2022-09-11T16:51:39.082Z,20.40
2022-09-11T16:55:47.608Z,20.30
2022-09-11T16:59:56.244Z,20.20
2022-09-11T17:04:05.317Z,20.10
2022-09-11T17:08:14.006Z,20.10
2022-09-11T17:12:30.701Z,20.00
2022-09-11T17:16:39.885Z,19.90
2022-09-11T17:20:48.919Z,19.80
2022-09-11T17:24:57.636Z,19.70
2022-09-11T17:29:07.662Z,19.60
2022-09-11T17:33:16.945Z,19.40
2022-09-11T17:37:26.573Z,19.30
2022-09-11T17:41:35.222Z,19.20
2022-09-11T17:45:44.264Z,19.10
2022-09-11T17:49:52.837Z,19.00
2022-09-11T17:54:01.518Z,18.90
2022-09-11T17:58:10.379Z,18.70
2022-09-11T18:02:19.906Z,18.70
2022-09-11T18:06:37.160Z,18.60
2022-09-11T18:10:54.056Z,18.50
2022-09-11T18:15:03.840Z,18.40
2022-09-11T18:19:12.980Z,18.30
2022-09-11T18:23:23.090Z,18.30
2022-09-11T18:27:31.670Z,18.20
2022-09-11T18:31:43.274Z,18.10
2022-09-11T18:35:52.486Z,18.00
2022-09-11T18:40:01.285Z,17.90
2022-09-11T18:44:18.813Z,17.80
2022-09-11T18:48:24.423Z,17.70
2022-09-11T18:52:33.610Z,17.60
2022-09-11T18:56:43.097Z,17.60
2022-09-11T19:00:53.436Z,17.50
2022-09-11T19:05:02.105Z,17.50
2022-09-11T19:09:12.985Z,17.40
2022-09-11T19:13:22.602Z,17.30
2022-09-11T19:17:31.266Z,17.30
2022-09-11T19:21:40.918Z,17.30
2022-09-11T19:25:50.166Z,17.20
2022-09-11T19:30:00.448Z,17.10
2022-09-11T19:34:11.918Z,17.00
2022-09-11T19:38:21.373Z,17.00
2022-09-11T19:42:49.263Z,16.90
2022-09-11T19:46:59.570Z,16.90
2022-09-11T19:51:14.600Z,16.90
2022-09-11T19:55:23.332Z,16.80
2022-09-11T19:59:32.725Z,16.80
2022-09-11T20:03:43.142Z,16.80
2022-09-11T20:08:16.094Z,16.70
2022-09-11T20:12:23.344Z,16.70
2022-09-11T20:16:31.930Z,16.60
2022-09-11T20:20:44.881Z,16.60
2022-09-11T20:24:51.009Z,16.50
2022-09-11T20:29:02.023Z,16.50
2022-09-11T20:33:13.082Z,16.40
2022-09-11T20:37:21.979Z,16.40
2022-09-11T20:41:33.214Z,16.40
2022-09-11T20:45:43.154Z,16.20
2022-09-11T20:50:11.110Z,16.20
2022-09-11T20:54:19.741Z,16.10
2022-09-11T20:58:28.370Z,16.10
2022-09-11T21:02:37.361Z,16.10
2022-09-11T21:06:47.583Z,16.20
2022-09-11T21:10:56.200Z,16.10
2022-09-11T21:15:06.778Z,16.10
2022-09-11T21:19:16.679Z,16.00
2022-09-11T21:23:25.466Z,16.00
2022-09-11T21:27:34.465Z,15.90
2022-09-11T21:31:43.095Z,15.90
2022-09-11T21:35:55.314Z,15.90
2022-09-11T21:40:05.514Z,15.90
2022-09-11T21:44:14.139Z,15.90
2022-09-11T21:48:22.871Z,15.80
2022-09-11T21:52:50.853Z,15.80
2022-09-11T21:56:59.690Z,15.70
2022-09-11T22:01:28.092Z,15.70
2022-09-11T22:05:40.864Z,15.60
2022-09-11T22:09:49.642Z,15.50
2022-09-11T22:13:58.266Z,15.50
2022-09-11T22:18:06.897Z,15.50
2022-09-11T22:22:16.041Z,15.50
2022-09-11T22:26:24.813Z,15.50
2022-09-11T22:30:34.016Z,15.50
2022-09-11T22:34:42.639Z,15.40
2022-09-11T22:38:51.883Z,15.40
2022-09-11T22:43:00.511Z,15.30
2022-09-11T22:47:09.345Z,15.30
2022-09-11T22:51:17.932Z,15.30
2022-09-11T22:55:26.515Z,15.20
2022-09-11T22:59:35.086Z,15.20
2022-09-11T23:03:43.761Z,15.20
2022-09-11T23:08:11.842Z,15.20
2022-09-11T23:12:21.083Z,15.10
2022-09-11T23:16:30.572Z,15.10
2022-09-11T23:20:39.469Z,15.10
2022-09-11T23:24:47.995Z,15.00
2022-09-11T23:28:57.327Z,15.00
2022-09-11T23:33:05.900Z,14.90
2022-09-11T23:37:14.599Z,14.90
2022-09-11T23:41:23.945Z,14.90
2022-09-11T23:45:32.595Z,14.90
2022-09-11T23:49:43.353Z,14.90
2022-09-11T23:53:52.086Z,14.80
2022-09-11T23:58:12.966Z,14.80
